Time,TemperatureF,DewpointF,PressureIn,WindDirection,WindDirectionDegrees,WindSpeedMPH,WindSpeedGustMPH,Humidity,HourlyPrecipIn,Conditions,Clouds,dailyrainin,SoftwareType,DateUTC
2013-08-23 00:00:00,56.0,52.0,-100.00,NNW,334,3.0,-999.0,86,0.00,,,-99.99,,2013-08-23 07:00:00,
2013-08-23 00:42:00,56.0,52.0,-100.00,NNW,334,3.0,-999.0,86,0.00,,,-99.99,,2013-08-23 07:42:00,
2013-08-23 00:52:00,56.0,52.0,-100.00,NNW,334,3.0,-999.0,86,0.00,,,-99.99,,2013-08-23 07:52:00,
2013-08-23 01:00:00,56.0,51.0,-100.00,North,10,0.0,-999.0,85,0.00,,,-99.99,,2013-08-23 08:00:00,
2013-08-23 01:42:00,56.0,51.0,-100.00,North,10,0.0,-999.0,85,0.00,,,-99.99,,2013-08-23 08:42:00,
2013-08-23 01:52:00,56.0,51.0,-100.00,North,10,0.0,-999.0,85,0.00,,,-99.99,,2013-08-23 08:52:00,
2013-08-23 02:00:00,55.0,51.0,-100.00,North,358,1.0,-999.0,86,0.00,,,-99.99,,2013-08-23 09:00:00,
2013-08-23 02:43:00,55.0,51.0,-100.00,North,358,1.0,-999.0,86,0.00,,,-99.99,,2013-08-23 09:43:00,
2013-08-23 02:53:00,55.0,51.0,-100.00,North,358,1.0,-999.0,86,0.00,,,-99.99,,2013-08-23 09:53:00,
2013-08-23 03:00:00,55.0,51.0,-100.00,SW,219,2.0,-999.0,87,0.00,,,-99.99,,2013-08-23 10:00:00,
2013-08-23 03:42:00,55.0,51.0,-100.00,SW,219,2.0,-999.0,87,0.00,,,-99.99,,2013-08-23 10:42:00,
2013-08-23 03:52:00,55.0,51.0,-100.00,SW,219,2.0,-999.0,87,0.00,,,-99.99,,2013-08-23 10:52:00,
2013-08-23 04:00:00,55.0,51.0,-100.00,NNW,341,0.0,-999.0,86,0.00,,,-99.99,,2013-08-23 11:00:00,
2013-08-23 04:42:00,55.0,51.0,-100.00,NNW,341,0.0,-999.0,86,0.00,,,-99.99,,2013-08-23 11:42:00,
2013-08-23 04:53:00,55.0,51.0,-100.00,NNW,341,0.0,-999.0,86,0.00,,,-99.99,,2013-08-23 11:53:00,
2013-08-23 05:00:00,54.0,51.0,-100.00,East,91,2.0,-999.0,88,0.00,,,-99.99,,2013-08-23 12:00:00,
2013-08-23 05:42:00,54.0,51.0,-100.00,East,91,2.0,-999.0,88,0.00,,,-99.99,,2013-08-23 12:42:00,
2013-08-23 05:52:00,54.0,51.0,-100.00,East,91,2.0,-999.0,88,0.00,,,-99.99,,2013-08-23 12:52:00,
2013-08-23 06:00:00,54.0,51.0,-100.00,North,352,2.0,-999.0,88,0.00,,,-99.99,,2013-08-23 13:00:00,
2013-08-23 06:42:00,54.0,51.0,-100.00,North,352,2.0,-999.0,88,0.00,,,-99.99,,2013-08-23 13:42:00,
2013-08-23 06:52:00,54.0,51.0,-100.00,North,352,2.0,-999.0,88,0.00,,,-99.99,,2013-08-23 13:52:00,
2013-08-23 07:00:00,54.0,51.0,-100.00,NW,326,1.0,-999.0,88,0.00,,,-99.99,,2013-08-23 14:00:00,
2013-08-23 07:42:00,54.0,51.0,-100.00,NW,326,1.0,-999.0,88,0.00,,,-99.99,,2013-08-23 14:42:00,
2013-08-23 07:52:00,54.0,51.0,-100.00,NW,326,1.0,-999.0,88,0.00,,,-99.99,,2013-08-23 14:52:00,
2013-08-23 08:00:00,54.0,51.0,-100.00,NNW,347,2.0,-999.0,89,0.00,,,-99.99,,2013-08-23 15:00:00,
2013-08-23 08:44:00,54.0,51.0,-100.00,NNW,347,2.0,-999.0,89,0.00,,,-99.99,,2013-08-23 15:44:00,
2013-08-23 08:54:00,54.0,51.0,-100.00,NNW,347,2.0,-999.0,89,0.00,,,-99.99,,2013-08-23 15:54:00,
2013-08-23 09:00:00,55.0,51.0,-100.00,SSW,204,2.0,-999.0,84,0.00,,,-99.99,,2013-08-23 16:00:00,
2013-08-23 09:42:00,55.0,51.0,-100.00,SSW,204,2.0,-999.0,84,0.00,,,-99.99,,2013-08-23 16:42:00,
2013-08-23 09:53:00,55.0,51.0,-100.00,SSW,204,2.0,-999.0,84,0.00,,,-99.99,,2013-08-23 16:53:00,
2013-08-23 10:00:00,59.0,52.0,-100.00,SSW,205,5.0,-999.0,76,0.00,,,-99.99,,2013-08-23 17:00:00,
2013-08-23 10:43:00,59.0,52.0,-100.00,SSW,205,5.0,-999.0,76,0.00,,,-99.99,,2013-08-23 17:43:00,
2013-08-23 10:53:00,59.0,52.0,-100.00,SSW,205,5.0,-999.0,76,0.00,,,-99.99,,2013-08-23 17:53:00,
2013-08-23 11:00:00,67.0,52.0,-100.00,WNW,296,0.0,-999.0,59,0.00,,,-99.99,,2013-08-23 18:00:00,
2013-08-23 11:42:00,67.0,52.0,-100.00,WNW,296,0.0,-999.0,59,0.00,,,-99.99,,2013-08-23 18:42:00,
2013-08-23 11:52:00,67.0,52.0,-100.00,WNW,296,0.0,-999.0,59,0.00,,,-99.99,,2013-08-23 18:52:00,
2013-08-23 12:00:00,71.0,53.0,-100.00,NNE,16,0.0,-999.0,53,0.00,,,-99.99,,2013-08-23 19:00:00,
2013-08-23 12:42:00,71.0,53.0,-100.00,NNE,16,0.0,-999.0,53,0.00,,,-99.99,,2013-08-23 19:42:00,
2013-08-23 12:52:00,71.0,53.0,-100.00,NNE,16,0.0,-999.0,53,0.00,,,-99.99,,2013-08-23 19:52:00,
2013-08-23 14:00:00,78.0,53.0,-100.00,NW,317,3.0,-999.0,42,0.00,,,-99.99,,2013-08-23 21:00:00,
2013-08-23 14:54:00,78.0,53.0,-100.00,NW,317,3.0,-999.0,42,0.00,,,-99.99,,2013-08-23 21:54:00,